Chupadero, New Mexico
Current Conditions -  °F | °C
As of 3:53 PM on Friday 19 Dec 2014 (Local Time) from KSAF Reporting Station
Clear Clear  
Wind Chill: 30°   Ceiling: Unl
Heat Index: 38°   Visibility: 10mi
Dew Point: 19°   Wind: 13mph
Humidity: 47%   Direction: 350°N
Pressure: 30.13"   Gusts: NA
Location:  35.7017°N, 105.921°W
Report Text: KSAF 192253Z 35011KT 10SM CLR 03/M07 A3013 RMK AO2 SLP197 T00331072
Loading
Personal Weather Stations






























Interactive Weather Map New forecast layout! Learn more

10-Day Weather Forecast

Advertisements
Track Severe Weather on mobile